Dades de l'estació automàtica Alcarràs

?
?

Resum diari

20:30 TU
Dades diàries de l'estació meteorològica
Temperatura mitjana 11.2 °C
Temperatura màxima 21.6 °C 14:49 TU
Temperatura mínima 4.5 °C 6:00 TU
Humitat relativa mitjana 83%
Precipitació acumulada 0.0 mm
Ratxa màxima del vent (2 m) 7.9 km/h - 169º 12:54 TU

El tram horari està expressat en Temps Universal (TU). Cal sumar una hora en horari d'hivern i dues en horari d'estiu per passar a l'hora oficial.

Alcarràs

Metadades estació meteorològica
Municipi Alcarràs
Comarca Segrià
Altitud 122 m
Data alta 31.07.2013
Estat actual Operativa
Dades de període
Període
TU
TM
°C
TX
°C
TN
°C
HRM
%
PPT
mm
VVM (2 m)
km/h
DVM (2 m)
graus
VVX (2 m)
km/h
00:00 - 00:30 5.6 6.3 5.1 100 0.0 0.4 318 2.2
00:30 - 01:00 5.3 5.8 4.9 100 0.0 0.0 320 1.4
01:00 - 01:30 5.3 5.6 5.0 100 0.0 0.0 229 1.4
01:30 - 02:00 5.2 5.4 5.0 100 0.0 0.0 0 0.0
02:00 - 02:30 5.3 5.6 5.1 100 0.0 0.4 261 2.5
02:30 - 03:00 5.4 5.7 5.1 100 0.0 0.7 358 3.6
03:00 - 03:30 5.1 5.4 4.7 100 0.0 0.4 346 2.9
03:30 - 04:00 5.0 5.4 4.7 100 0.0 0.0 3 1.4
04:00 - 04:30 5.1 5.5 4.6 100 0.0 0.0 3 0.4
04:30 - 05:00 4.9 5.2 4.6 100 0.0 0.0 0 0.0
05:00 - 05:30 4.8 4.9 4.6 100 0.0 0.7 354 2.9
05:30 - 06:00 4.7 5.1 4.5 100 0.0 0.7 358 2.5
06:00 - 06:30 4.6 4.7 4.5 100 0.0 0.4 12 2.2
06:30 - 07:00 5.0 5.4 4.8 100 0.0 0.7 10 3.6
07:00 - 07:30 6.1 6.6 5.4 100 0.0 1.4 33 5.8
07:30 - 08:00 7.3 8.0 6.7 100 0.0 2.2 61 5.0
08:00 - 08:30 8.9 9.6 8.0 90 0.0 2.9 56 6.5
08:30 - 09:00 10.1 10.5 9.7 84 0.0 1.8 87 4.7
09:00 - 09:30 11.5 12.4 10.7 76 0.0 1.4 80 5.8
09:30 - 10:00 12.6 13.5 12.0 70 0.0 2.2 93 6.5
10:00 - 10:30 14.4 15.1 13.4 63 0.0 2.2 170 6.5
10:30 - 11:00 15.7 16.4 15.2 59 0.0 1.4 212 7.2
11:00 - 11:30 16.8 17.6 16.1 57 0.0 2.2 183 6.1
11:30 - 12:00 17.8 18.5 17.3 55 0.0 1.8 234 6.1
12:00 - 12:30 18.4 19.0 17.8 54 0.0 1.4 244 6.8
12:30 - 13:00 19.3 19.6 19.0 51 0.0 1.8 184 7.9
13:00 - 13:30 20.5 21.2 19.7 48 0.0 2.2 234 7.2
13:30 - 14:00 21.0 21.4 20.8 48 0.0 2.5 186 7.6
14:00 - 14:30 21.1 21.4 20.7 49 0.0 1.8 169 6.8
14:30 - 15:00 21.3 21.6 21.1 48 0.0 1.4 176 6.5
15:00 - 15:30 21.2 21.6 20.7 49 0.0 1.1 306 7.6
15:30 - 16:00 20.2 20.6 19.1 52 0.0 1.1 295 5.0
16:00 - 16:30 18.1 19.1 17.1 63 0.0 0.0 295 2.5
16:30 - 17:00 15.9 17.0 14.7 75 0.0 0.0 0 0.0
17:00 - 17:30 13.8 14.6 12.7 86 0.0 0.0 0 0.0
17:30 - 18:00 12.3 12.7 11.7 99 0.0 0.4 321 4.7
18:00 - 18:30 11.2 11.6 10.7 100 0.0 0.0 0 0.0
18:30 - 19:00 10.2 10.7 9.8 100 0.0 0.0 340 2.2
19:00 - 19:30 9.6 9.9 8.9 100 0.0 0.0 335 1.4
19:30 - 20:00 8.9 9.1 8.7 100 0.0 0.7 334 2.9
20:00 - 20:30 8.3 8.6 8.1 100 0.0 0.0 0 0.0
20:30 - 21:00 7.9 8.2 7.6 100 0.0 0.4 2 2.9

Les dades en taronja només han passat un control de qualitat automàtic. Resta pendent la seva validació definitiva.